sensor_id;sensor_type;location;lat;lon;timestamp;temperature;humidity
19799;DHT22;10059;59.850;10.454;2022-12-07T00:00:16;-0.60;99.90
19799;DHT22;10059;59.850;10.454;2022-12-07T00:02:43;-0.60;99.90
19799;DHT22;10059;59.850;10.454;2022-12-07T00:05:09;-0.60;99.90
19799;DHT22;10059;59.850;10.454;2022-12-07T00:07:36;-0.60;99.90
19799;DHT22;10059;59.850;10.454;2022-12-07T00:10:04;-0.60;99.90
19799;DHT22;10059;59.850;10.454;2022-12-07T00:12:32;-0.50;99.90
19799;DHT22;10059;59.850;10.454;2022-12-07T00:14:59;-0.50;99.90
19799;DHT22;10059;59.850;10.454;2022-12-07T00:17:26;-0.60;99.90
19799;DHT22;10059;59.850;10.454;2022-12-07T00:19:53;-0.80;99.90
19799;DHT22;10059;59.850;10.454;2022-12-07T00:22:19;-0.80;99.90
19799;DHT22;10059;59.850;10.454;2022-12-07T00:24:46;-0.90;99.90
19799;DHT22;10059;59.850;10.454;2022-12-07T00:27:13;-1.00;99.90
19799;DHT22;10059;59.850;10.454;2022-12-07T00:29:41;-1.00;99.90
19799;DHT22;10059;59.850;10.454;2022-12-07T00:32:08;-1.00;99.90
19799;DHT22;10059;59.850;10.454;2022-12-07T00:34:35;-0.80;99.90
19799;DHT22;10059;59.850;10.454;2022-12-07T00:37:02;-1.00;99.90
19799;DHT22;10059;59.850;10.454;2022-12-07T00:39:29;-1.10;99.90
19799;DHT22;10059;59.850;10.454;2022-12-07T00:41:55;-1.10;99.90
19799;DHT22;10059;59.850;10.454;2022-12-07T00:44:22;-1.10;99.90
19799;DHT22;10059;59.850;10.454;2022-12-07T00:46:50;-1.30;99.90
19799;DHT22;10059;59.850;10.454;2022-12-07T00:49:17;-1.20;99.90
19799;DHT22;10059;59.850;10.454;2022-12-07T00:51:44;-1.10;99.90
19799;DHT22;10059;59.850;10.454;2022-12-07T00:54:11;-1.20;99.90
19799;DHT22;10059;59.850;10.454;2022-12-07T00:56:38;-1.20;99.90
19799;DHT22;10059;59.850;10.454;2022-12-07T00:59:05;-1.20;99.90
19799;DHT22;10059;59.850;10.454;2022-12-07T01:01:33;-1.50;99.90
19799;DHT22;10059;59.850;10.454;2022-12-07T01:04:02;-1.60;99.90
19799;DHT22;10059;59.850;10.454;2022-12-07T01:06:30;-1.80;99.90
19799;DHT22;10059;59.850;10.454;2022-12-07T01:08:57;-1.90;99.90
19799;DHT22;10059;59.850;10.454;2022-12-07T01:11:26;-1.90;99.90
19799;DHT22;10059;59.850;10.454;2022-12-07T01:13:54;-1.90;99.90
19799;DHT22;10059;59.850;10.454;2022-12-07T01:16:23;-2.00;99.90
19799;DHT22;10059;59.850;10.454;2022-12-07T01:18:52;-1.90;99.90
19799;DHT22;10059;59.850;10.454;2022-12-07T01:21:22;-1.90;99.90
19799;DHT22;10059;59.850;10.454;2022-12-07T01:23:49;-1.90;99.90
19799;DHT22;10059;59.850;10.454;2022-12-07T01:26:18;-1.90;99.90
19799;DHT22;10059;59.850;10.454;2022-12-07T01:28:46;-1.90;99.90
19799;DHT22;10059;59.850;10.454;2022-12-07T01:31:16;-1.90;99.90
19799;DHT22;10059;59.850;10.454;2022-12-07T01:33:45;-1.90;99.90
19799;DHT22;10059;59.850;10.454;2022-12-07T01:36:15;-1.90;99.90
19799;DHT22;10059;59.850;10.454;2022-12-07T01:38:47;-2.00;99.90
19799;DHT22;10059;59.850;10.454;2022-12-07T01:41:15;-2.10;99.90
19799;DHT22;10059;59.850;10.454;2022-12-07T01:46:59;-2.20;99.90
19799;DHT22;10059;59.850;10.454;2022-12-07T01:49:29;-2.20;99.90
19799;DHT22;10059;59.850;10.454;2022-12-07T01:52:03;-2.30;99.90
19799;DHT22;10059;59.850;10.454;2022-12-07T01:54:35;-2.30;99.90
19799;DHT22;10059;59.850;10.454;2022-12-07T01:57:03;-2.30;99.90
19799;DHT22;10059;59.850;10.454;2022-12-07T01:59:31;-2.30;99.90
19799;DHT22;10059;59.850;10.454;2022-12-07T02:01:58;-2.30;99.90
19799;DHT22;10059;59.850;10.454;2022-12-07T02:04:25;-2.30;99.90
19799;DHT22;10059;59.850;10.454;2022-12-07T02:06:53;-2.30;99.90
19799;DHT22;10059;59.850;10.454;2022-12-07T02:09:21;-2.40;99.90
19799;DHT22;10059;59.850;10.454;2022-12-07T02:11:49;-2.40;99.90
19799;DHT22;10059;59.850;10.454;2022-12-07T02:14:16;-2.30;99.90
19799;DHT22;10059;59.850;10.454;2022-12-07T02:16:51;-2.30;99.90
19799;DHT22;10059;59.850;10.454;2022-12-07T02:22:44;-2.30;99.90
19799;DHT22;10059;59.850;10.454;2022-12-07T02:25:18;-2.20;99.90
19799;DHT22;10059;59.850;10.454;2022-12-07T02:27:52;-2.20;99.90
19799;DHT22;10059;59.850;10.454;2022-12-07T02:30:28;-2.30;99.90
19799;DHT22;10059;59.850;10.454;2022-12-07T02:33:00;-2.20;99.90
19799;DHT22;10059;59.850;10.454;2022-12-07T02:35:31;-2.20;99.90
19799;DHT22;10059;59.850;10.454;2022-12-07T02:38:02;-2.20;99.90
19799;DHT22;10059;59.850;10.454;2022-12-07T02:40:33;-2.20;99.90
19799;DHT22;10059;59.850;10.454;2022-12-07T02:43:04;-2.20;99.90
19799;DHT22;10059;59.850;10.454;2022-12-07T02:45:35;-2.10;99.90
19799;DHT22;10059;59.850;10.454;2022-12-07T02:48:04;-2.10;99.90
19799;DHT22;10059;59.850;10.454;2022-12-07T02:50:32;-2.10;99.90
19799;DHT22;10059;59.850;10.454;2022-12-07T02:52:58;-2.20;99.90
19799;DHT22;10059;59.850;10.454;2022-12-07T02:55:29;-2.20;99.90
19799;DHT22;10059;59.850;10.454;2022-12-07T02:58:08;-2.20;99.90
19799;DHT22;10059;59.850;10.454;2022-12-07T03:00:51;-2.40;99.90
19799;DHT22;10059;59.850;10.454;2022-12-07T03:03:18;-2.40;99.90
19799;DHT22;10059;59.850;10.454;2022-12-07T03:05:56;-2.30;99.90
19799;DHT22;10059;59.850;10.454;2022-12-07T03:08:32;-2.30;99.90
19799;DHT22;10059;59.850;10.454;2022-12-07T03:11:04;-2.40;99.90
19799;DHT22;10059;59.850;10.454;2022-12-07T03:13:37;-2.40;99.90
19799;DHT22;10059;59.850;10.454;2022-12-07T03:16:12;-2.40;99.90
19799;DHT22;10059;59.850;10.454;2022-12-07T03:18:46;-2.40;99.90
19799;DHT22;10059;59.850;10.454;2022-12-07T03:21:17;-2.40;99.90
19799;DHT22;10059;59.850;10.454;2022-12-07T03:23:48;-2.30;99.90
19799;DHT22;10059;59.850;10.454;2022-12-07T03:26:17;-2.30;99.90
19799;DHT22;10059;59.850;10.454;2022-12-07T03:28:48;-2.20;99.90
19799;DHT22;10059;59.850;10.454;2022-12-07T03:31:21;-2.30;99.90
19799;DHT22;10059;59.850;10.454;2022-12-07T03:33:53;-2.20;99.90
19799;DHT22;10059;59.850;10.454;2022-12-07T03:36:26;-2.20;99.90
19799;DHT22;10059;59.850;10.454;2022-12-07T03:38:57;-2.30;99.90
19799;DHT22;10059;59.850;10.454;2022-12-07T03:41:27;-2.30;99.90
19799;DHT22;10059;59.850;10.454;2022-12-07T03:43:56;-2.30;99.90
19799;DHT22;10059;59.850;10.454;2022-12-07T03:46:32;-2.30;99.90
19799;DHT22;10059;59.850;10.454;2022-12-07T03:49:07;-2.40;99.90
19799;DHT22;10059;59.850;10.454;2022-12-07T03:51:40;-2.40;99.90
19799;DHT22;10059;59.850;10.454;2022-12-07T03:54:14;-2.40;99.90
19799;DHT22;10059;59.850;10.454;2022-12-07T03:56:44;-2.40;99.90
19799;DHT22;10059;59.850;10.454;2022-12-07T03:59:13;-2.40;99.90
19799;DHT22;10059;59.850;10.454;2022-12-07T04:01:43;-2.60;99.90
19799;DHT22;10059;59.850;10.454;2022-12-07T04:04:10;-2.70;99.90
19799;DHT22;10059;59.850;10.454;2022-12-07T04:06:37;-3.00;99.90
19799;DHT22;10059;59.850;10.454;2022-12-07T04:09:03;-3.00;99.90
19799;DHT22;10059;59.850;10.454;2022-12-07T04:11:30;-3.00;99.90
19799;DHT22;10059;59.850;10.454;2022-12-07T04:13:57;-3.10;99.90
19799;DHT22;10059;59.850;10.454;2022-12-07T04:16:43;-3.30;99.90
19799;DHT22;10059;59.850;10.454;2022-12-07T04:19:09;-3.40;99.90
19799;DHT22;10059;59.850;10.454;2022-12-07T04:21:36;-3.40;99.90
19799;DHT22;10059;59.850;10.454;2022-12-07T04:24:03;-3.30;99.90
19799;DHT22;10059;59.850;10.454;2022-12-07T04:26:30;-3.20;99.90
19799;DHT22;10059;59.850;10.454;2022-12-07T04:28:57;-3.10;99.90
19799;DHT22;10059;59.850;10.454;2022-12-07T04:31:24;-3.10;99.90
19799;DHT22;10059;59.850;10.454;2022-12-07T04:33:52;-3.20;99.90
19799;DHT22;10059;59.850;10.454;2022-12-07T04:36:19;-3.20;99.90
19799;DHT22;10059;59.850;10.454;2022-12-07T04:38:46;-3.30;99.90
19799;DHT22;10059;59.850;10.454;2022-12-07T04:41:13;-3.20;99.90
19799;DHT22;10059;59.850;10.454;2022-12-07T04:43:40;-3.30;99.90
19799;DHT22;10059;59.850;10.454;2022-12-07T04:46:07;-3.30;99.90
19799;DHT22;10059;59.850;10.454;2022-12-07T04:48:34;-3.10;99.90
19799;DHT22;10059;59.850;10.454;2022-12-07T04:51:04;-3.20;99.90
19799;DHT22;10059;59.850;10.454;2022-12-07T04:53:31;-3.20;99.90
19799;DHT22;10059;59.850;10.454;2022-12-07T04:55:58;-3.30;99.90
19799;DHT22;10059;59.850;10.454;2022-12-07T04:58:26;-3.30;99.90
19799;DHT22;10059;59.850;10.454;2022-12-07T05:00:54;-3.30;99.90
19799;DHT22;10059;59.850;10.454;2022-12-07T05:03:21;-3.30;99.90
19799;DHT22;10059;59.850;10.454;2022-12-07T05:05:47;-3.20;99.90
19799;DHT22;10059;59.850;10.454;2022-12-07T05:08:16;-3.30;99.90
19799;DHT22;10059;59.850;10.454;2022-12-07T05:10:42;-3.20;99.90
19799;DHT22;10059;59.850;10.454;2022-12-07T05:13:09;-3.20;99.90
19799;DHT22;10059;59.850;10.454;2022-12-07T05:15:36;-3.20;99.90
19799;DHT22;10059;59.850;10.454;2022-12-07T05:18:03;-3.20;99.90
19799;DHT22;10059;59.850;10.454;2022-12-07T05:20:30;-3.10;99.90
19799;DHT22;10059;59.850;10.454;2022-12-07T05:22:57;-3.20;99.90
19799;DHT22;10059;59.850;10.454;2022-12-07T05:25:25;-3.20;99.90
19799;DHT22;10059;59.850;10.454;2022-12-07T05:27:53;-3.20;99.90
19799;DHT22;10059;59.850;10.454;2022-12-07T05:30:21;-3.20;99.90
19799;DHT22;10059;59.850;10.454;2022-12-07T05:32:47;-3.30;99.90
19799;DHT22;10059;59.850;10.454;2022-12-07T05:35:15;-3.30;99.90
19799;DHT22;10059;59.850;10.454;2022-12-07T05:37:41;-3.40;99.90
19799;DHT22;10059;59.850;10.454;2022-12-07T05:40:09;-3.40;99.90
19799;DHT22;10059;59.850;10.454;2022-12-07T05:42:38;-3.40;99.90
19799;DHT22;10059;59.850;10.454;2022-12-07T05:45:06;-3.40;99.90
19799;DHT22;10059;59.850;10.454;2022-12-07T05:47:33;-3.50;99.90
19799;DHT22;10059;59.850;10.454;2022-12-07T05:50:00;-3.60;99.90
19799;DHT22;10059;59.850;10.454;2022-12-07T05:52:27;-3.60;99.90
19799;DHT22;10059;59.850;10.454;2022-12-07T05:54:53;-3.60;99.90
19799;DHT22;10059;59.850;10.454;2022-12-07T05:57:20;-3.60;99.90
19799;DHT22;10059;59.850;10.454;2022-12-07T05:59:48;-3.50;99.90
19799;DHT22;10059;59.850;10.454;2022-12-07T06:02:15;-3.60;99.90
19799;DHT22;10059;59.850;10.454;2022-12-07T06:04:45;-3.50;99.90
19799;DHT22;10059;59.850;10.454;2022-12-07T06:07:13;-3.50;99.90
19799;DHT22;10059;59.850;10.454;2022-12-07T06:09:41;-3.50;99.90
19799;DHT22;10059;59.850;10.454;2022-12-07T06:12:10;-3.50;99.90
19799;DHT22;10059;59.850;10.454;2022-12-07T06:14:55;-3.50;99.90
19799;DHT22;10059;59.850;10.454;2022-12-07T06:17:22;-3.50;99.90
19799;DHT22;10059;59.850;10.454;2022-12-07T06:19:49;-3.50;99.90
19799;DHT22;10059;59.850;10.454;2022-12-07T06:22:16;-3.40;99.90
19799;DHT22;10059;59.850;10.454;2022-12-07T06:24:43;-3.40;99.90
19799;DHT22;10059;59.850;10.454;2022-12-07T06:27:10;-3.50;99.90
19799;DHT22;10059;59.850;10.454;2022-12-07T06:29:37;-3.60;99.90
19799;DHT22;10059;59.850;10.454;2022-12-07T06:32:06;-3.60;99.90
19799;DHT22;10059;59.850;10.454;2022-12-07T06:34:33;-3.60;99.90
19799;DHT22;10059;59.850;10.454;2022-12-07T06:36:59;-3.50;99.90
19799;DHT22;10059;59.850;10.454;2022-12-07T06:39:28;-3.70;99.90
19799;DHT22;10059;59.850;10.454;2022-12-07T06:41:56;-3.60;99.90
19799;DHT22;10059;59.850;10.454;2022-12-07T06:44:23;-3.80;99.90
19799;DHT22;10059;59.850;10.454;2022-12-07T06:46:51;-3.80;99.90
19799;DHT22;10059;59.850;10.454;2022-12-07T06:49:19;-3.80;99.90
19799;DHT22;10059;59.850;10.454;2022-12-07T06:51:46;-3.90;99.90
19799;DHT22;10059;59.850;10.454;2022-12-07T06:54:14;-3.90;99.90
19799;DHT22;10059;59.850;10.454;2022-12-07T06:56:41;-4.20;99.90
19799;DHT22;10059;59.850;10.454;2022-12-07T06:59:08;-4.50;99.90
19799;DHT22;10059;59.850;10.454;2022-12-07T07:01:36;-4.80;99.90
19799;DHT22;10059;59.850;10.454;2022-12-07T07:04:03;-4.60;99.90
19799;DHT22;10059;59.850;10.454;2022-12-07T07:06:31;-4.40;99.90
19799;DHT22;10059;59.850;10.454;2022-12-07T07:08:58;-4.30;99.90
19799;DHT22;10059;59.850;10.454;2022-12-07T07:11:25;-4.30;99.90
19799;DHT22;10059;59.850;10.454;2022-12-07T07:13:52;-4.20;99.90
19799;DHT22;10059;59.850;10.454;2022-12-07T07:16:19;-4.40;99.90
19799;DHT22;10059;59.850;10.454;2022-12-07T07:18:46;-4.60;99.90
19799;DHT22;10059;59.850;10.454;2022-12-07T07:21:13;-4.70;99.90
19799;DHT22;10059;59.850;10.454;2022-12-07T07:23:41;-4.90;99.90
19799;DHT22;10059;59.850;10.454;2022-12-07T07:26:08;-4.80;99.90
19799;DHT22;10059;59.850;10.454;2022-12-07T07:28:34;-5.00;99.90
19799;DHT22;10059;59.850;10.454;2022-12-07T07:31:01;-5.10;99.90
19799;DHT22;10059;59.850;10.454;2022-12-07T07:33:28;-5.00;99.90
19799;DHT22;10059;59.850;10.454;2022-12-07T07:35:58;-5.10;99.90
19799;DHT22;10059;59.850;10.454;2022-12-07T07:38:25;-5.20;99.90
19799;DHT22;10059;59.850;10.454;2022-12-07T07:40:53;-5.30;99.90
19799;DHT22;10059;59.850;10.454;2022-12-07T07:43:20;-5.30;99.90
19799;DHT22;10059;59.850;10.454;2022-12-07T07:45:46;-5.30;99.90
19799;DHT22;10059;59.850;10.454;2022-12-07T07:48:13;-5.30;99.90
19799;DHT22;10059;59.850;10.454;2022-12-07T07:50:40;-5.30;99.90
19799;DHT22;10059;59.850;10.454;2022-12-07T07:53:07;-5.20;99.90
19799;DHT22;10059;59.850;10.454;2022-12-07T07:55:33;-5.10;99.90
19799;DHT22;10059;59.850;10.454;2022-12-07T07:58:02;-5.00;99.90
19799;DHT22;10059;59.850;10.454;2022-12-07T08:00:28;-4.90;99.90
19799;DHT22;10059;59.850;10.454;2022-12-07T08:02:56;-4.90;99.90
19799;DHT22;10059;59.850;10.454;2022-12-07T08:05:23;-4.90;99.90
19799;DHT22;10059;59.850;10.454;2022-12-07T08:07:49;-5.00;99.90
19799;DHT22;10059;59.850;10.454;2022-12-07T08:10:16;-5.10;99.90
19799;DHT22;10059;59.850;10.454;2022-12-07T08:12:43;-4.90;99.90
19799;DHT22;10059;59.850;10.454;2022-12-07T08:15:30;-4.80;99.90
19799;DHT22;10059;59.850;10.454;2022-12-07T08:17:57;-4.70;99.90
19799;DHT22;10059;59.850;10.454;2022-12-07T08:20:24;-4.60;99.90
19799;DHT22;10059;59.850;10.454;2022-12-07T08:22:51;-4.50;99.90
19799;DHT22;10059;59.850;10.454;2022-12-07T08:25:18;-4.40;99.90
19799;DHT22;10059;59.850;10.454;2022-12-07T08:27:45;-4.30;99.90
19799;DHT22;10059;59.850;10.454;2022-12-07T08:30:12;-4.20;99.90
19799;DHT22;10059;59.850;10.454;2022-12-07T08:32:40;-4.20;99.90
19799;DHT22;10059;59.850;10.454;2022-12-07T08:35:08;-4.20;99.90
19799;DHT22;10059;59.850;10.454;2022-12-07T08:37:35;-4.10;99.90
19799;DHT22;10059;59.850;10.454;2022-12-07T08:40:03;-4.10;99.90
19799;DHT22;10059;59.850;10.454;2022-12-07T08:42:30;-4.20;99.90
19799;DHT22;10059;59.850;10.454;2022-12-07T08:45:04;-4.20;99.90
19799;DHT22;10059;59.850;10.454;2022-12-07T08:47:32;-4.30;99.90
19799;DHT22;10059;59.850;10.454;2022-12-07T08:50:01;-4.30;99.90
19799;DHT22;10059;59.850;10.454;2022-12-07T08:52:29;-4.30;99.90
19799;DHT22;10059;59.850;10.454;2022-12-07T08:54:56;-4.30;99.90
19799;DHT22;10059;59.850;10.454;2022-12-07T08:57:24;-4.50;99.90
19799;DHT22;10059;59.850;10.454;2022-12-07T08:59:51;-4.50;99.90
19799;DHT22;10059;59.850;10.454;2022-12-07T09:02:17;-4.50;99.90
19799;DHT22;10059;59.850;10.454;2022-12-07T09:04:44;-4.90;99.90
19799;DHT22;10059;59.850;10.454;2022-12-07T09:07:12;-5.00;99.90
19799;DHT22;10059;59.850;10.454;2022-12-07T09:09:39;-4.90;99.90
19799;DHT22;10059;59.850;10.454;2022-12-07T09:12:07;-4.90;99.90
19799;DHT22;10059;59.850;10.454;2022-12-07T09:14:34;-4.60;99.90
19799;DHT22;10059;59.850;10.454;2022-12-07T09:17:06;-4.60;99.90
19799;DHT22;10059;59.850;10.454;2022-12-07T09:19:32;-4.50;99.90
19799;DHT22;10059;59.850;10.454;2022-12-07T09:21:59;-4.50;99.90
19799;DHT22;10059;59.850;10.454;2022-12-07T09:24:27;-4.40;99.90
19799;DHT22;10059;59.850;10.454;2022-12-07T09:26:54;-4.40;99.90
19799;DHT22;10059;59.850;10.454;2022-12-07T09:29:21;-4.30;99.90
19799;DHT22;10059;59.850;10.454;2022-12-07T09:31:48;-4.20;99.90
19799;DHT22;10059;59.850;10.454;2022-12-07T09:34:15;-4.00;99.90
19799;DHT22;10059;59.850;10.454;2022-12-07T09:36:42;-3.80;99.90
19799;DHT22;10059;59.850;10.454;2022-12-07T09:39:09;-3.40;99.90
19799;DHT22;10059;59.850;10.454;2022-12-07T09:41:40;-3.00;99.90
19799;DHT22;10059;59.850;10.454;2022-12-07T09:44:10;-3.00;99.90
19799;DHT22;10059;59.850;10.454;2022-12-07T09:46:40;-3.00;99.90
19799;DHT22;10059;59.850;10.454;2022-12-07T09:49:12;-2.80;99.90
19799;DHT22;10059;59.850;10.454;2022-12-07T09:51:41;-2.80;99.90
19799;DHT22;10059;59.850;10.454;2022-12-07T09:54:09;-2.90;99.90
19799;DHT22;10059;59.850;10.454;2022-12-07T09:56:40;-3.20;99.90
19799;DHT22;10059;59.850;10.454;2022-12-07T09:59:13;-3.10;99.90
19799;DHT22;10059;59.850;10.454;2022-12-07T10:01:42;-2.90;99.90
19799;DHT22;10059;59.850;10.454;2022-12-07T10:04:12;-2.90;99.90
19799;DHT22;10059;59.850;10.454;2022-12-07T10:06:40;-2.90;99.90
19799;DHT22;10059;59.850;10.454;2022-12-07T10:09:11;-2.70;99.90
19799;DHT22;10059;59.850;10.454;2022-12-07T10:11:59;-2.50;99.90
19799;DHT22;10059;59.850;10.454;2022-12-07T10:14:27;-2.30;99.90
19799;DHT22;10059;59.850;10.454;2022-12-07T10:16:54;-2.20;99.90
19799;DHT22;10059;59.850;10.454;2022-12-07T10:19:29;-2.20;99.90
19799;DHT22;10059;59.850;10.454;2022-12-07T10:22:01;-2.30;99.90
19799;DHT22;10059;59.850;10.454;2022-12-07T10:24:28;-2.20;99.90
19799;DHT22;10059;59.850;10.454;2022-12-07T10:26:55;-1.60;99.90
19799;DHT22;10059;59.850;10.454;2022-12-07T10:29:27;-1.40;99.90
19799;DHT22;10059;59.850;10.454;2022-12-07T10:31:58;-1.00;99.90
19799;DHT22;10059;59.850;10.454;2022-12-07T10:34:28;-1.40;99.90
19799;DHT22;10059;59.850;10.454;2022-12-07T10:37:15;-1.30;99.90
19799;DHT22;10059;59.850;10.454;2022-12-07T10:39:43;-1.20;99.90
19799;DHT22;10059;59.850;10.454;2022-12-07T10:42:18;-0.90;99.90
19799;DHT22;10059;59.850;10.454;2022-12-07T10:44:48;-0.10;99.90
19799;DHT22;10059;59.850;10.454;2022-12-07T10:47:32;0.30;99.90
19799;DHT22;10059;59.850;10.454;2022-12-07T10:53:32;0.90;99.90
19799;DHT22;10059;59.850;10.454;2022-12-07T10:56:18;1.80;99.90
19799;DHT22;10059;59.850;10.454;2022-12-07T10:58:59;2.10;99.90
19799;DHT22;10059;59.850;10.454;2022-12-07T11:01:34;2.40;99.90
19799;DHT22;10059;59.850;10.454;2022-12-07T11:04:21;2.50;99.90
19799;DHT22;10059;59.850;10.454;2022-12-07T11:06:57;3.00;99.90
19799;DHT22;10059;59.850;10.454;2022-12-07T11:09:47;2.70;99.90
19799;DHT22;10059;59.850;10.454;2022-12-07T11:12:25;2.90;99.90
19799;DHT22;10059;59.850;10.454;2022-12-07T11:14:58;2.90;99.90
19799;DHT22;10059;59.850;10.454;2022-12-07T11:17:33;2.60;99.90
19799;DHT22;10059;59.850;10.454;2022-12-07T11:20:14;2.40;99.90
19799;DHT22;10059;59.850;10.454;2022-12-07T11:22:51;1.80;99.90
19799;DHT22;10059;59.850;10.454;2022-12-07T11:25:24;0.50;99.90
19799;DHT22;10059;59.850;10.454;2022-12-07T11:28:08;0.50;99.90
19799;DHT22;10059;59.850;10.454;2022-12-07T11:30:43;0.60;99.90
19799;DHT22;10059;59.850;10.454;2022-12-07T11:33:21;0.50;99.90
19799;DHT22;10059;59.850;10.454;2022-12-07T11:36:00;0.30;99.90
19799;DHT22;10059;59.850;10.454;2022-12-07T11:38:34;0.10;99.90
19799;DHT22;10059;59.850;10.454;2022-12-07T11:41:05;-0.40;99.90
19799;DHT22;10059;59.850;10.454;2022-12-07T11:43:53;-0.60;99.90
19799;DHT22;10059;59.850;10.454;2022-12-07T11:46:24;-0.60;99.90
19799;DHT22;10059;59.850;10.454;2022-12-07T11:48:58;-0.40;99.90
19799;DHT22;10059;59.850;10.454;2022-12-07T11:51:28;-0.30;99.90
19799;DHT22;10059;59.850;10.454;2022-12-07T11:53:59;-0.50;99.90
19799;DHT22;10059;59.850;10.454;2022-12-07T11:56:28;-0.50;99.90
19799;DHT22;10059;59.850;10.454;2022-12-07T11:58:59;-0.20;99.90
19799;DHT22;10059;59.850;10.454;2022-12-07T12:01:39;-0.30;99.90
19799;DHT22;10059;59.850;10.454;2022-12-07T12:04:26;-0.40;99.90
19799;DHT22;10059;59.850;10.454;2022-12-07T12:06:54;-0.40;99.90
19799;DHT22;10059;59.850;10.454;2022-12-07T12:09:24;-0.50;99.90
19799;DHT22;10059;59.850;10.454;2022-12-07T12:12:06;-0.60;99.90
19799;DHT22;10059;59.850;10.454;2022-12-07T12:14:46;-0.60;99.90
19799;DHT22;10059;59.850;10.454;2022-12-07T12:17:25;-0.60;99.90
19799;DHT22;10059;59.850;10.454;2022-12-07T12:20:04;-0.60;99.90
19799;DHT22;10059;59.850;10.454;2022-12-07T12:22:36;-0.50;99.90
19799;DHT22;10059;59.850;10.454;2022-12-07T12:25:05;-0.50;99.90
19799;DHT22;10059;59.850;10.454;2022-12-07T12:27:35;-0.60;99.90
19799;DHT22;10059;59.850;10.454;2022-12-07T12:30:05;-0.60;99.90
19799;DHT22;10059;59.850;10.454;2022-12-07T12:32:38;-0.60;99.90
19799;DHT22;10059;59.850;10.454;2022-12-07T12:35:28;-0.70;99.90
19799;DHT22;10059;59.850;10.454;2022-12-07T12:38:27;-0.90;99.90
19799;DHT22;10059;59.850;10.454;2022-12-07T12:40:56;-0.90;99.90
19799;DHT22;10059;59.850;10.454;2022-12-07T12:43:50;-0.90;99.90
19799;DHT22;10059;59.850;10.454;2022-12-07T12:46:48;-0.70;99.90
19799;DHT22;10059;59.850;10.454;2022-12-07T12:49:44;-0.80;99.90
19799;DHT22;10059;59.850;10.454;2022-12-07T12:58:47;-0.80;99.90
19799;DHT22;10059;59.850;10.454;2022-12-07T13:01:45;-0.80;99.90
19799;DHT22;10059;59.850;10.454;2022-12-07T13:04:36;-0.80;99.90
19799;DHT22;10059;59.850;10.454;2022-12-07T13:07:08;-0.90;99.90
19799;DHT22;10059;59.850;10.454;2022-12-07T13:09:36;-0.90;99.90
19799;DHT22;10059;59.850;10.454;2022-12-07T13:12:13;-0.80;99.90
19799;DHT22;10059;59.850;10.454;2022-12-07T13:18:00;-0.90;99.90
19799;DHT22;10059;59.850;10.454;2022-12-07T13:20:46;-1.00;99.90
19799;DHT22;10059;59.850;10.454;2022-12-07T13:23:18;-1.10;99.90
19799;DHT22;10059;59.850;10.454;2022-12-07T13:26:12;-1.10;99.90
19799;DHT22;10059;59.850;10.454;2022-12-07T13:28:42;-1.10;99.90
19799;DHT22;10059;59.850;10.454;2022-12-07T13:31:19;-1.30;99.90
19799;DHT22;10059;59.850;10.454;2022-12-07T13:33:47;-1.40;99.90
19799;DHT22;10059;59.850;10.454;2022-12-07T13:36:20;-1.20;99.90
19799;DHT22;10059;59.850;10.454;2022-12-07T13:38:52;-1.10;99.90
19799;DHT22;10059;59.850;10.454;2022-12-07T13:41:20;-1.20;99.90
19799;DHT22;10059;59.850;10.454;2022-12-07T13:43:59;-1.20;99.90
19799;DHT22;10059;59.850;10.454;2022-12-07T13:46:35;-1.10;99.90
19799;DHT22;10059;59.850;10.454;2022-12-07T13:49:17;-1.20;99.90
19799;DHT22;10059;59.850;10.454;2022-12-07T13:51:44;-1.20;99.90
19799;DHT22;10059;59.850;10.454;2022-12-07T13:54:13;-1.30;99.90
19799;DHT22;10059;59.850;10.454;2022-12-07T13:56:41;-1.30;99.90
19799;DHT22;10059;59.850;10.454;2022-12-07T13:59:14;-1.50;99.90
19799;DHT22;10059;59.850;10.454;2022-12-07T14:01:43;-1.60;99.90
19799;DHT22;10059;59.850;10.454;2022-12-07T14:04:27;-1.50;99.90
19799;DHT22;10059;59.850;10.454;2022-12-07T14:06:56;-1.60;99.90
19799;DHT22;10059;59.850;10.454;2022-12-07T14:09:24;-1.50;99.90
19799;DHT22;10059;59.850;10.454;2022-12-07T14:11:53;-1.60;99.90
19799;DHT22;10059;59.850;10.454;2022-12-07T14:14:22;-1.50;99.90
19799;DHT22;10059;59.850;10.454;2022-12-07T14:17:08;-1.40;99.90
19799;DHT22;10059;59.850;10.454;2022-12-07T14:19:46;-1.40;99.90
19799;DHT22;10059;59.850;10.454;2022-12-07T14:22:23;-1.40;99.90
19799;DHT22;10059;59.850;10.454;2022-12-07T14:24:57;-1.50;99.90
19799;DHT22;10059;59.850;10.454;2022-12-07T14:27:24;-1.40;99.90
19799;DHT22;10059;59.850;10.454;2022-12-07T14:29:59;-1.40;99.90
19799;DHT22;10059;59.850;10.454;2022-12-07T14:32:29;-1.50;99.90
19799;DHT22;10059;59.850;10.454;2022-12-07T14:35:01;-1.40;99.90
19799;DHT22;10059;59.850;10.454;2022-12-07T14:37:28;-1.50;99.90
19799;DHT22;10059;59.850;10.454;2022-12-07T14:39:56;-1.50;99.90
19799;DHT22;10059;59.850;10.454;2022-12-07T14:42:26;-1.50;99.90
19799;DHT22;10059;59.850;10.454;2022-12-07T14:44:54;-1.60;99.90
19799;DHT22;10059;59.850;10.454;2022-12-07T14:47:21;-1.50;99.90
19799;DHT22;10059;59.850;10.454;2022-12-07T14:49:49;-1.40;99.90
19799;DHT22;10059;59.850;10.454;2022-12-07T14:52:19;-1.40;99.90
19799;DHT22;10059;59.850;10.454;2022-12-07T14:54:47;-1.60;99.90
19799;DHT22;10059;59.850;10.454;2022-12-07T14:57:14;-1.70;99.90
19799;DHT22;10059;59.850;10.454;2022-12-07T14:59:41;-1.50;99.90
19799;DHT22;10059;59.850;10.454;2022-12-07T15:02:11;-1.50;99.90
19799;DHT22;10059;59.850;10.454;2022-12-07T15:04:38;-1.50;99.90
19799;DHT22;10059;59.850;10.454;2022-12-07T15:07:12;-1.50;99.90
19799;DHT22;10059;59.850;10.454;2022-12-07T15:09:41;-1.70;99.90
19799;DHT22;10059;59.850;10.454;2022-12-07T15:12:08;-1.60;99.90
19799;DHT22;10059;59.850;10.454;2022-12-07T15:14:35;-1.60;99.90
19799;DHT22;10059;59.850;10.454;2022-12-07T15:17:02;-1.50;99.90
19799;DHT22;10059;59.850;10.454;2022-12-07T15:19:29;-1.60;99.90
19799;DHT22;10059;59.850;10.454;2022-12-07T15:21:56;-1.80;99.90
19799;DHT22;10059;59.850;10.454;2022-12-07T15:24:25;-1.90;99.90
19799;DHT22;10059;59.850;10.454;2022-12-07T15:26:52;-2.10;99.90
19799;DHT22;10059;59.850;10.454;2022-12-07T15:29:19;-2.10;99.90
19799;DHT22;10059;59.850;10.454;2022-12-07T15:31:48;-2.00;99.90
19799;DHT22;10059;59.850;10.454;2022-12-07T15:34:15;-1.80;99.90
19799;DHT22;10059;59.850;10.454;2022-12-07T15:36:44;-1.80;99.90
19799;DHT22;10059;59.850;10.454;2022-12-07T15:39:11;-1.80;99.90
19799;DHT22;10059;59.850;10.454;2022-12-07T15:41:40;-1.80;99.90
19799;DHT22;10059;59.850;10.454;2022-12-07T15:44:09;-1.80;99.90
19799;DHT22;10059;59.850;10.454;2022-12-07T15:46:54;-1.80;99.90
19799;DHT22;10059;59.850;10.454;2022-12-07T15:49:20;-1.70;99.90
19799;DHT22;10059;59.850;10.454;2022-12-07T15:51:47;-1.60;99.90
19799;DHT22;10059;59.850;10.454;2022-12-07T15:54:18;-1.60;99.90
19799;DHT22;10059;59.850;10.454;2022-12-07T15:56:47;-1.60;99.90